sensor_id;sensor_type;location;lat;lon;timestamp;P1;durP1;ratioP1;P2;durP2;ratioP2
6205;SDS011;3136;48.788;9.772;2022-09-01T00:01:31;12.97;;;9.47;;
6205;SDS011;3136;48.788;9.772;2022-09-01T00:03:58;12.70;;;9.30;;
6205;SDS011;3136;48.788;9.772;2022-09-01T00:06:29;10.20;;;9.07;;
6205;SDS011;3136;48.788;9.772;2022-09-01T00:09:07;14.53;;;9.20;;
6205;SDS011;3136;48.788;9.772;2022-09-01T00:11:35;10.47;;;8.67;;
6205;SDS011;3136;48.788;9.772;2022-09-01T00:14:02;11.90;;;9.07;;
6205;SDS011;3136;48.788;9.772;2022-09-01T00:16:30;10.67;;;9.10;;
6205;SDS011;3136;48.788;9.772;2022-09-01T00:18:56;11.20;;;9.83;;
6205;SDS011;3136;48.788;9.772;2022-09-01T00:21:29;11.27;;;9.90;;
6205;SDS011;3136;48.788;9.772;2022-09-01T00:23:58;11.17;;;9.50;;
6205;SDS011;3136;48.788;9.772;2022-09-01T00:26:24;12.27;;;9.40;;
6205;SDS011;3136;48.788;9.772;2022-09-01T00:28:50;10.70;;;8.70;;
6205;SDS011;3136;48.788;9.772;2022-09-01T00:31:16;10.63;;;9.13;;
6205;SDS011;3136;48.788;9.772;2022-09-01T00:33:45;13.97;;;8.67;;
6205;SDS011;3136;48.788;9.772;2022-09-01T00:36:12;10.20;;;8.20;;
6205;SDS011;3136;48.788;9.772;2022-09-01T00:38:38;11.00;;;8.53;;
6205;SDS011;3136;48.788;9.772;2022-09-01T00:41:04;9.50;;;8.47;;
6205;SDS011;3136;48.788;9.772;2022-09-01T00:46:03;10.13;;;8.30;;
6205;SDS011;3136;48.788;9.772;2022-09-01T00:48:31;10.97;;;8.43;;
6205;SDS011;3136;48.788;9.772;2022-09-01T00:50:57;10.17;;;8.27;;
6205;SDS011;3136;48.788;9.772;2022-09-01T00:53:24;10.50;;;9.37;;
6205;SDS011;3136;48.788;9.772;2022-09-01T00:55:50;11.07;;;8.87;;
6205;SDS011;3136;48.788;9.772;2022-09-01T00:58:15;10.53;;;8.60;;
6205;SDS011;3136;48.788;9.772;2022-09-01T01:00:41;9.40;;;8.23;;
6205;SDS011;3136;48.788;9.772;2022-09-01T01:03:11;14.73;;;10.77;;
6205;SDS011;3136;48.788;9.772;2022-09-01T01:05:39;18.17;;;13.13;;
6205;SDS011;3136;48.788;9.772;2022-09-01T01:08:10;14.50;;;10.80;;
6205;SDS011;3136;48.788;9.772;2022-09-01T01:10:37;11.27;;;9.20;;
6205;SDS011;3136;48.788;9.772;2022-09-01T01:13:06;12.97;;;8.63;;
6205;SDS011;3136;48.788;9.772;2022-09-01T01:15:34;12.07;;;9.40;;
6205;SDS011;3136;48.788;9.772;2022-09-01T01:18:00;11.27;;;9.20;;
6205;SDS011;3136;48.788;9.772;2022-09-01T01:20:26;10.83;;;9.20;;
6205;SDS011;3136;48.788;9.772;2022-09-01T01:23:21;11.37;;;8.93;;
6205;SDS011;3136;48.788;9.772;2022-09-01T01:25:58;12.83;;;8.23;;
6205;SDS011;3136;48.788;9.772;2022-09-01T01:28:26;10.53;;;8.80;;
6205;SDS011;3136;48.788;9.772;2022-09-01T01:30:58;11.50;;;8.53;;
6205;SDS011;3136;48.788;9.772;2022-09-01T01:33:30;10.77;;;8.63;;
6205;SDS011;3136;48.788;9.772;2022-09-01T01:35:58;9.40;;;8.13;;
6205;SDS011;3136;48.788;9.772;2022-09-01T01:38:25;10.03;;;8.27;;
6205;SDS011;3136;48.788;9.772;2022-09-01T01:40:52;9.40;;;8.27;;
6205;SDS011;3136;48.788;9.772;2022-09-01T01:43:19;10.77;;;7.60;;
6205;SDS011;3136;48.788;9.772;2022-09-01T01:45:48;9.43;;;8.50;;
6205;SDS011;3136;48.788;9.772;2022-09-01T01:48:16;10.63;;;8.63;;
6205;SDS011;3136;48.788;9.772;2022-09-01T01:50:46;9.67;;;8.30;;
6205;SDS011;3136;48.788;9.772;2022-09-01T01:53:13;10.87;;;8.47;;
6205;SDS011;3136;48.788;9.772;2022-09-01T01:55:42;13.33;;;8.57;;
6205;SDS011;3136;48.788;9.772;2022-09-01T01:58:08;8.87;;;8.07;;
6205;SDS011;3136;48.788;9.772;2022-09-01T02:00:36;11.33;;;7.60;;
6205;SDS011;3136;48.788;9.772;2022-09-01T02:03:02;8.83;;;7.93;;
6205;SDS011;3136;48.788;9.772;2022-09-01T02:05:30;9.13;;;8.23;;
6205;SDS011;3136;48.788;9.772;2022-09-01T02:07:59;10.37;;;8.47;;
6205;SDS011;3136;48.788;9.772;2022-09-01T02:10:33;13.13;;;9.17;;
6205;SDS011;3136;48.788;9.772;2022-09-01T02:13:01;10.33;;;8.87;;
6205;SDS011;3136;48.788;9.772;2022-09-01T02:15:37;13.37;;;8.77;;
6205;SDS011;3136;48.788;9.772;2022-09-01T02:18:08;9.50;;;8.60;;
6205;SDS011;3136;48.788;9.772;2022-09-01T02:20:38;11.43;;;9.47;;
6205;SDS011;3136;48.788;9.772;2022-09-01T02:23:05;11.23;;;9.43;;
6205;SDS011;3136;48.788;9.772;2022-09-01T02:25:36;11.53;;;9.23;;
6205;SDS011;3136;48.788;9.772;2022-09-01T02:28:03;13.03;;;8.70;;
6205;SDS011;3136;48.788;9.772;2022-09-01T02:30:33;9.53;;;8.53;;
6205;SDS011;3136;48.788;9.772;2022-09-01T02:33:01;10.43;;;8.43;;
6205;SDS011;3136;48.788;9.772;2022-09-01T02:35:28;10.30;;;8.80;;
6205;SDS011;3136;48.788;9.772;2022-09-01T02:37:58;10.87;;;8.53;;
6205;SDS011;3136;48.788;9.772;2022-09-01T02:40:25;10.23;;;8.93;;
6205;SDS011;3136;48.788;9.772;2022-09-01T02:42:54;9.53;;;8.63;;
6205;SDS011;3136;48.788;9.772;2022-09-01T02:45:20;11.73;;;8.57;;
6205;SDS011;3136;48.788;9.772;2022-09-01T02:47:48;12.37;;;9.10;;
6205;SDS011;3136;48.788;9.772;2022-09-01T02:50:15;12.73;;;8.60;;
6205;SDS011;3136;48.788;9.772;2022-09-01T02:52:46;9.63;;;8.33;;
6205;SDS011;3136;48.788;9.772;2022-09-01T02:55:14;10.00;;;9.00;;
6205;SDS011;3136;48.788;9.772;2022-09-01T02:57:47;11.37;;;9.07;;
6205;SDS011;3136;48.788;9.772;2022-09-01T03:00:14;10.13;;;8.70;;
6205;SDS011;3136;48.788;9.772;2022-09-01T03:02:58;11.90;;;8.87;;
6205;SDS011;3136;48.788;9.772;2022-09-01T03:05:27;10.00;;;9.00;;
6205;SDS011;3136;48.788;9.772;2022-09-01T03:07:56;11.30;;;9.00;;
6205;SDS011;3136;48.788;9.772;2022-09-01T03:10:41;9.70;;;8.70;;
6205;SDS011;3136;48.788;9.772;2022-09-01T03:13:09;12.57;;;9.43;;
6205;SDS011;3136;48.788;9.772;2022-09-01T03:15:37;11.43;;;9.53;;
6205;SDS011;3136;48.788;9.772;2022-09-01T03:18:04;11.40;;;9.17;;
6205;SDS011;3136;48.788;9.772;2022-09-01T03:20:32;11.10;;;9.07;;
6205;SDS011;3136;48.788;9.772;2022-09-01T03:22:59;11.37;;;9.53;;
6205;SDS011;3136;48.788;9.772;2022-09-01T03:25:25;14.33;;;9.53;;
6205;SDS011;3136;48.788;9.772;2022-09-01T03:27:54;13.03;;;9.90;;
6205;SDS011;3136;48.788;9.772;2022-09-01T03:30:26;13.47;;;10.03;;
6205;SDS011;3136;48.788;9.772;2022-09-01T03:32:56;12.90;;;10.07;;
6205;SDS011;3136;48.788;9.772;2022-09-01T03:35:23;11.33;;;9.73;;
6205;SDS011;3136;48.788;9.772;2022-09-01T03:37:50;11.07;;;9.87;;
6205;SDS011;3136;48.788;9.772;2022-09-01T03:40:16;12.10;;;9.80;;
6205;SDS011;3136;48.788;9.772;2022-09-01T03:42:43;14.30;;;10.80;;
6205;SDS011;3136;48.788;9.772;2022-09-01T03:45:09;11.30;;;9.87;;
6205;SDS011;3136;48.788;9.772;2022-09-01T03:47:40;13.57;;;9.97;;
6205;SDS011;3136;48.788;9.772;2022-09-01T03:50:08;11.53;;;9.77;;
6205;SDS011;3136;48.788;9.772;2022-09-01T03:52:44;10.43;;;9.37;;
6205;SDS011;3136;48.788;9.772;2022-09-01T03:55:15;12.87;;;9.93;;
6205;SDS011;3136;48.788;9.772;2022-09-01T03:57:47;11.87;;;10.03;;
6205;SDS011;3136;48.788;9.772;2022-09-01T04:00:17;13.60;;;10.23;;
6205;SDS011;3136;48.788;9.772;2022-09-01T04:02:48;11.87;;;10.60;;
6205;SDS011;3136;48.788;9.772;2022-09-01T04:05:17;11.90;;;10.70;;
6205;SDS011;3136;48.788;9.772;2022-09-01T04:07:49;13.40;;;10.13;;
6205;SDS011;3136;48.788;9.772;2022-09-01T04:10:16;12.53;;;10.50;;
6205;SDS011;3136;48.788;9.772;2022-09-01T04:12:43;13.07;;;10.57;;
6205;SDS011;3136;48.788;9.772;2022-09-01T04:15:09;12.03;;;10.70;;
6205;SDS011;3136;48.788;9.772;2022-09-01T04:17:36;13.00;;;10.73;;
6205;SDS011;3136;48.788;9.772;2022-09-01T04:20:20;13.90;;;11.10;;
6205;SDS011;3136;48.788;9.772;2022-09-01T04:22:47;11.97;;;10.50;;
6205;SDS011;3136;48.788;9.772;2022-09-01T04:25:15;10.80;;;9.70;;
6205;SDS011;3136;48.788;9.772;2022-09-01T04:27:41;12.13;;;10.10;;
6205;SDS011;3136;48.788;9.772;2022-09-01T04:30:09;10.97;;;9.40;;
6205;SDS011;3136;48.788;9.772;2022-09-01T04:32:36;12.90;;;10.20;;
6205;SDS011;3136;48.788;9.772;2022-09-01T04:35:02;13.80;;;10.57;;
6205;SDS011;3136;48.788;9.772;2022-09-01T04:37:29;16.87;;;10.70;;
6205;SDS011;3136;48.788;9.772;2022-09-01T04:39:55;14.30;;;10.60;;
6205;SDS011;3136;48.788;9.772;2022-09-01T04:42:21;14.53;;;10.93;;
6205;SDS011;3136;48.788;9.772;2022-09-01T04:44:49;10.90;;;9.53;;
6205;SDS011;3136;48.788;9.772;2022-09-01T04:47:15;12.83;;;10.50;;
6205;SDS011;3136;48.788;9.772;2022-09-01T04:49:43;11.80;;;10.30;;
6205;SDS011;3136;48.788;9.772;2022-09-01T04:52:13;12.47;;;11.17;;
6205;SDS011;3136;48.788;9.772;2022-09-01T04:54:38;12.80;;;10.97;;
6205;SDS011;3136;48.788;9.772;2022-09-01T04:57:04;15.47;;;11.07;;
6205;SDS011;3136;48.788;9.772;2022-09-01T04:59:31;12.17;;;10.50;;
6205;SDS011;3136;48.788;9.772;2022-09-01T05:01:57;13.67;;;10.70;;
6205;SDS011;3136;48.788;9.772;2022-09-01T05:04:25;12.93;;;11.37;;
6205;SDS011;3136;48.788;9.772;2022-09-01T05:06:57;12.83;;;11.13;;
6205;SDS011;3136;48.788;9.772;2022-09-01T05:09:25;13.03;;;11.57;;
6205;SDS011;3136;48.788;9.772;2022-09-01T05:11:56;13.97;;;12.57;;
6205;SDS011;3136;48.788;9.772;2022-09-01T05:14:26;13.93;;;12.40;;
6205;SDS011;3136;48.788;9.772;2022-09-01T05:16:57;12.93;;;11.63;;
6205;SDS011;3136;48.788;9.772;2022-09-01T05:19:24;13.70;;;11.47;;
6205;SDS011;3136;48.788;9.772;2022-09-01T05:21:52;15.07;;;11.20;;
6205;SDS011;3136;48.788;9.772;2022-09-01T05:24:22;14.33;;;11.07;;
6205;SDS011;3136;48.788;9.772;2022-09-01T05:26:50;13.73;;;10.90;;
6205;SDS011;3136;48.788;9.772;2022-09-01T05:29:16;15.03;;;11.60;;
6205;SDS011;3136;48.788;9.772;2022-09-01T05:31:43;14.47;;;11.87;;
6205;SDS011;3136;48.788;9.772;2022-09-01T05:34:11;13.67;;;12.10;;
6205;SDS011;3136;48.788;9.772;2022-09-01T05:36:40;15.13;;;12.53;;
6205;SDS011;3136;48.788;9.772;2022-09-01T05:39:07;14.50;;;11.87;;
6205;SDS011;3136;48.788;9.772;2022-09-01T05:41:36;14.90;;;12.47;;
6205;SDS011;3136;48.788;9.772;2022-09-01T05:44:04;14.27;;;12.77;;
6205;SDS011;3136;48.788;9.772;2022-09-01T05:46:32;13.47;;;12.07;;
6205;SDS011;3136;48.788;9.772;2022-09-01T05:49:00;15.40;;;11.03;;
6205;SDS011;3136;48.788;9.772;2022-09-01T05:51:26;15.37;;;12.50;;
6205;SDS011;3136;48.788;9.772;2022-09-01T05:53:54;16.05;;;13.68;;
6205;SDS011;3136;48.788;9.772;2022-09-01T05:56:23;13.77;;;12.40;;
6205;SDS011;3136;48.788;9.772;2022-09-01T05:58:51;15.87;;;12.87;;
6205;SDS011;3136;48.788;9.772;2022-09-01T06:01:21;15.47;;;12.83;;
6205;SDS011;3136;48.788;9.772;2022-09-01T06:03:50;14.43;;;12.80;;
6205;SDS011;3136;48.788;9.772;2022-09-01T06:06:24;14.33;;;12.17;;
6205;SDS011;3136;48.788;9.772;2022-09-01T06:08:54;17.40;;;13.27;;
6205;SDS011;3136;48.788;9.772;2022-09-01T06:11:24;19.73;;;13.30;;
6205;SDS011;3136;48.788;9.772;2022-09-01T06:13:51;17.60;;;12.70;;
6205;SDS011;3136;48.788;9.772;2022-09-01T06:16:21;15.77;;;12.90;;
6205;SDS011;3136;48.788;9.772;2022-09-01T06:18:48;22.17;;;13.50;;
6205;SDS011;3136;48.788;9.772;2022-09-01T06:21:16;14.40;;;12.13;;
6205;SDS011;3136;48.788;9.772;2022-09-01T06:23:42;16.73;;;14.30;;
6205;SDS011;3136;48.788;9.772;2022-09-01T06:26:16;16.07;;;12.77;;
6205;SDS011;3136;48.788;9.772;2022-09-01T06:28:42;20.33;;;14.87;;
6205;SDS011;3136;48.788;9.772;2022-09-01T06:31:08;19.43;;;14.07;;
6205;SDS011;3136;48.788;9.772;2022-09-01T06:33:36;15.47;;;12.80;;
6205;SDS011;3136;48.788;9.772;2022-09-01T06:36:02;16.40;;;13.07;;
6205;SDS011;3136;48.788;9.772;2022-09-01T06:38:29;17.60;;;12.70;;
6205;SDS011;3136;48.788;9.772;2022-09-01T06:41:02;18.73;;;13.77;;
6205;SDS011;3136;48.788;9.772;2022-09-01T06:43:32;20.20;;;14.77;;
6205;SDS011;3136;48.788;9.772;2022-09-01T06:45:59;19.20;;;13.83;;
6205;SDS011;3136;48.788;9.772;2022-09-01T06:48:26;18.03;;;13.67;;
6205;SDS011;3136;48.788;9.772;2022-09-01T06:50:54;19.10;;;13.77;;
6205;SDS011;3136;48.788;9.772;2022-09-01T06:53:23;15.80;;;13.73;;
6205;SDS011;3136;48.788;9.772;2022-09-01T06:55:48;16.97;;;13.73;;
6205;SDS011;3136;48.788;9.772;2022-09-01T06:58:14;19.40;;;15.07;;
6205;SDS011;3136;48.788;9.772;2022-09-01T07:00:40;17.30;;;12.83;;
6205;SDS011;3136;48.788;9.772;2022-09-01T07:03:11;20.17;;;15.30;;
6205;SDS011;3136;48.788;9.772;2022-09-01T07:05:39;16.47;;;13.60;;
6205;SDS011;3136;48.788;9.772;2022-09-01T07:08:07;20.10;;;14.80;;
6205;SDS011;3136;48.788;9.772;2022-09-01T07:10:42;15.93;;;13.57;;
6205;SDS011;3136;48.788;9.772;2022-09-01T07:13:11;15.90;;;13.40;;
6205;SDS011;3136;48.788;9.772;2022-09-01T07:15:45;14.33;;;12.80;;
6205;SDS011;3136;48.788;9.772;2022-09-01T07:18:13;16.83;;;12.77;;
6205;SDS011;3136;48.788;9.772;2022-09-01T07:20:41;13.47;;;11.33;;
6205;SDS011;3136;48.788;9.772;2022-09-01T07:23:07;12.70;;;11.27;;
6205;SDS011;3136;48.788;9.772;2022-09-01T07:25:40;12.43;;;10.63;;
6205;SDS011;3136;48.788;9.772;2022-09-01T07:28:07;10.83;;;9.73;;
6205;SDS011;3136;48.788;9.772;2022-09-01T07:30:39;10.77;;;9.67;;
6205;SDS011;3136;48.788;9.772;2022-09-01T07:33:07;11.17;;;9.13;;
6205;SDS011;3136;48.788;9.772;2022-09-01T07:35:36;9.63;;;8.60;;
6205;SDS011;3136;48.788;9.772;2022-09-01T07:38:02;9.80;;;8.90;;
6205;SDS011;3136;48.788;9.772;2022-09-01T07:40:30;9.17;;;8.20;;
6205;SDS011;3136;48.788;9.772;2022-09-01T07:42:56;9.33;;;8.07;;
6205;SDS011;3136;48.788;9.772;2022-09-01T07:45:21;7.60;;;6.80;;
6205;SDS011;3136;48.788;9.772;2022-09-01T07:47:47;7.50;;;6.80;;
6205;SDS011;3136;48.788;9.772;2022-09-01T07:50:13;7.63;;;6.90;;
6205;SDS011;3136;48.788;9.772;2022-09-01T07:52:39;8.20;;;6.90;;
6205;SDS011;3136;48.788;9.772;2022-09-01T07:55:14;7.40;;;6.70;;
6205;SDS011;3136;48.788;9.772;2022-09-01T07:57:41;7.23;;;6.20;;
6205;SDS011;3136;48.788;9.772;2022-09-01T08:00:08;9.40;;;6.60;;
6205;SDS011;3136;48.788;9.772;2022-09-01T08:02:35;7.07;;;6.37;;
6205;SDS011;3136;48.788;9.772;2022-09-01T08:05:05;6.87;;;6.17;;
6205;SDS011;3136;48.788;9.772;2022-09-01T08:07:33;6.50;;;5.90;;
6205;SDS011;3136;48.788;9.772;2022-09-01T08:09:59;7.13;;;6.43;;
6205;SDS011;3136;48.788;9.772;2022-09-01T08:12:25;8.47;;;6.53;;
6205;SDS011;3136;48.788;9.772;2022-09-01T08:14:50;6.77;;;6.17;;
6205;SDS011;3136;48.788;9.772;2022-09-01T08:17:17;7.10;;;6.20;;
6205;SDS011;3136;48.788;9.772;2022-09-01T08:19:44;6.83;;;6.23;;
6205;SDS011;3136;48.788;9.772;2022-09-01T08:22:11;8.70;;;6.10;;
6205;SDS011;3136;48.788;9.772;2022-09-01T08:24:37;6.67;;;5.97;;
6205;SDS011;3136;48.788;9.772;2022-09-01T08:27:02;6.20;;;5.10;;
6205;SDS011;3136;48.788;9.772;2022-09-01T08:29:28;7.00;;;5.13;;
6205;SDS011;3136;48.788;9.772;2022-09-01T08:31:54;6.17;;;4.50;;
6205;SDS011;3136;48.788;9.772;2022-09-01T08:34:23;8.23;;;4.50;;
6205;SDS011;3136;48.788;9.772;2022-09-01T08:36:49;4.90;;;4.40;;
6205;SDS011;3136;48.788;9.772;2022-09-01T08:39:15;4.73;;;3.60;;
6205;SDS011;3136;48.788;9.772;2022-09-01T08:41:41;4.30;;;3.90;;
6205;SDS011;3136;48.788;9.772;2022-09-01T08:47:11;5.00;;;3.60;;
6205;SDS011;3136;48.788;9.772;2022-09-01T08:49:39;4.27;;;3.87;;
6205;SDS011;3136;48.788;9.772;2022-09-01T08:57:43;6.10;;;4.90;;
6205;SDS011;3136;48.788;9.772;2022-09-01T09:00:11;7.57;;;4.80;;
6205;SDS011;3136;48.788;9.772;2022-09-01T09:10:45;5.40;;;4.73;;
6205;SDS011;3136;48.788;9.772;2022-09-01T09:16:26;4.90;;;4.40;;
6205;SDS011;3136;48.788;9.772;2022-09-01T09:19:03;8.60;;;4.83;;
6205;SDS011;3136;48.788;9.772;2022-09-01T09:21:44;5.13;;;4.63;;
6205;SDS011;3136;48.788;9.772;2022-09-01T09:24:17;5.77;;;4.33;;
6205;SDS011;3136;48.788;9.772;2022-09-01T09:27:18;6.33;;;4.40;;
6205;SDS011;3136;48.788;9.772;2022-09-01T09:29:51;5.83;;;4.30;;
6205;SDS011;3136;48.788;9.772;2022-09-01T09:32:19;4.27;;;3.87;;
6205;SDS011;3136;48.788;9.772;2022-09-01T09:34:46;4.57;;;4.17;;
6205;SDS011;3136;48.788;9.772;2022-09-01T09:37:16;6.00;;;4.73;;
6205;SDS011;3136;48.788;9.772;2022-09-01T09:39:43;5.57;;;4.60;;
6205;SDS011;3136;48.788;9.772;2022-09-01T09:42:10;4.77;;;4.37;;
6205;SDS011;3136;48.788;9.772;2022-09-01T09:44:39;5.70;;;5.10;;
6205;SDS011;3136;48.788;9.772;2022-09-01T09:47:32;5.53;;;4.60;;
6205;SDS011;3136;48.788;9.772;2022-09-01T09:52:45;6.00;;;4.20;;
6205;SDS011;3136;48.788;9.772;2022-09-01T09:57:46;5.70;;;4.17;;
6205;SDS011;3136;48.788;9.772;2022-09-01T10:02:44;4.10;;;3.70;;
6205;SDS011;3136;48.788;9.772;2022-09-01T10:07:47;6.30;;;4.33;;
6205;SDS011;3136;48.788;9.772;2022-09-01T10:10:59;4.60;;;4.20;;
6205;SDS011;3136;48.788;9.772;2022-09-01T10:13:05;4.80;;;4.10;;
6205;SDS011;3136;48.788;9.772;2022-09-01T10:15:35;4.37;;;3.93;;
6205;SDS011;3136;48.788;9.772;2022-09-01T10:18:23;4.03;;;3.73;;
6205;SDS011;3136;48.788;9.772;2022-09-01T10:20:57;4.00;;;3.60;;
6205;SDS011;3136;48.788;9.772;2022-09-01T10:23:30;3.70;;;3.30;;
6205;SDS011;3136;48.788;9.772;2022-09-01T10:26:03;5.77;;;3.60;;
6205;SDS011;3136;48.788;9.772;2022-09-01T10:28:54;4.07;;;3.40;;
6205;SDS011;3136;48.788;9.772;2022-09-01T10:31:30;4.13;;;3.73;;
6205;SDS011;3136;48.788;9.772;2022-09-01T10:33:56;3.80;;;3.50;;
6205;SDS011;3136;48.788;9.772;2022-09-01T10:36:22;4.30;;;3.80;;
6205;SDS011;3136;48.788;9.772;2022-09-01T10:38:48;5.13;;;3.70;;
6205;SDS011;3136;48.788;9.772;2022-09-01T10:41:42;4.03;;;3.63;;
6205;SDS011;3136;48.788;9.772;2022-09-01T10:46:45;6.27;;;4.00;;
6205;SDS011;3136;48.788;9.772;2022-09-01T10:51:55;4.57;;;4.17;;
6205;SDS011;3136;48.788;9.772;2022-09-01T10:57:05;3.87;;;3.57;;
6205;SDS011;3136;48.788;9.772;2022-09-01T10:59:45;5.60;;;4.03;;
6205;SDS011;3136;48.788;9.772;2022-09-01T11:02:13;3.50;;;3.20;;
6205;SDS011;3136;48.788;9.772;2022-09-01T11:09:44;3.90;;;3.53;;
6205;SDS011;3136;48.788;9.772;2022-09-01T11:12:30;3.67;;;3.30;;
6205;SDS011;3136;48.788;9.772;2022-09-01T11:15:01;4.47;;;3.50;;
6205;SDS011;3136;48.788;9.772;2022-09-01T11:20:32;3.93;;;3.53;;
6205;SDS011;3136;48.788;9.772;2022-09-01T11:23:02;4.70;;;3.60;;
6205;SDS011;3136;48.788;9.772;2022-09-01T11:30:41;4.50;;;3.93;;
6205;SDS011;3136;48.788;9.772;2022-09-01T11:33:24;3.97;;;3.47;;
6205;SDS011;3136;48.788;9.772;2022-09-01T11:36:13;8.73;;;4.17;;
6205;SDS011;3136;48.788;9.772;2022-09-01T11:42:06;6.40;;;3.40;;
6205;SDS011;3136;48.788;9.772;2022-09-01T11:44:47;3.00;;;2.80;;
6205;SDS011;3136;48.788;9.772;2022-09-01T11:47:26;3.37;;;3.07;;
6205;SDS011;3136;48.788;9.772;2022-09-01T11:52:40;3.47;;;3.17;;
6205;SDS011;3136;48.788;9.772;2022-09-01T11:55:07;4.77;;;3.10;;
6205;SDS011;3136;48.788;9.772;2022-09-01T11:57:35;5.33;;;3.50;;
6205;SDS011;3136;48.788;9.772;2022-09-01T12:00:06;5.80;;;3.57;;
6205;SDS011;3136;48.788;9.772;2022-09-01T12:02:34;3.20;;;3.00;;
6205;SDS011;3136;48.788;9.772;2022-09-01T12:05:21;4.17;;;3.00;;
6205;SDS011;3136;48.788;9.772;2022-09-01T12:07:48;3.50;;;2.97;;
6205;SDS011;3136;48.788;9.772;2022-09-01T12:13:04;3.70;;;3.40;;
6205;SDS011;3136;48.788;9.772;2022-09-01T12:15:31;3.53;;;3.00;;
6205;SDS011;3136;48.788;9.772;2022-09-01T12:19:00;3.80;;;3.10;;
6205;SDS011;3136;48.788;9.772;2022-09-01T12:20:59;2.80;;;2.60;;
6205;SDS011;3136;48.788;9.772;2022-09-01T12:23:27;2.87;;;2.60;;
6205;SDS011;3136;48.788;9.772;2022-09-01T12:25:59;3.57;;;2.83;;
6205;SDS011;3136;48.788;9.772;2022-09-01T12:28:28;3.57;;;2.93;;
6205;SDS011;3136;48.788;9.772;2022-09-01T12:30:55;3.57;;;2.80;;
6205;SDS011;3136;48.788;9.772;2022-09-01T12:33:23;3.83;;;2.93;;
6205;SDS011;3136;48.788;9.772;2022-09-01T12:35:50;2.90;;;2.60;;
6205;SDS011;3136;48.788;9.772;2022-09-01T12:38:23;2.90;;;2.60;;
6205;SDS011;3136;48.788;9.772;2022-09-01T12:40:53;3.22;;;2.90;;
6205;SDS011;3136;48.788;9.772;2022-09-01T12:43:53;4.47;;;2.90;;
6205;SDS011;3136;48.788;9.772;2022-09-01T12:46:13;3.33;;;2.83;;
6205;SDS011;3136;48.788;9.772;2022-09-01T12:49:17;3.85;;;2.42;;
6205;SDS011;3136;48.788;9.772;2022-09-01T12:51:44;3.00;;;2.65;;
6205;SDS011;3136;48.788;9.772;2022-09-01T12:54:12;6.07;;;2.50;;
6205;SDS011;3136;48.788;9.772;2022-09-01T12:56:39;2.90;;;2.70;;
6205;SDS011;3136;48.788;9.772;2022-09-01T12:59:09;2.80;;;2.60;;
6205;SDS011;3136;48.788;9.772;2022-09-01T13:01:37;2.45;;;2.20;;
6205;SDS011;3136;48.788;9.772;2022-09-01T13:04:05;4.63;;;2.50;;
6205;SDS011;3136;48.788;9.772;2022-09-01T13:06:33;3.72;;;2.47;;
6205;SDS011;3136;48.788;9.772;2022-09-01T13:08:59;3.63;;;2.50;;
6205;SDS011;3136;48.788;9.772;2022-09-01T13:11:24;2.72;;;2.40;;
6205;SDS011;3136;48.788;9.772;2022-09-01T13:13:50;4.03;;;2.40;;
6205;SDS011;3136;48.788;9.772;2022-09-01T13:16:15;3.00;;;2.50;;
6205;SDS011;3136;48.788;9.772;2022-09-01T13:18:41;3.33;;;2.25;;
6205;SDS011;3136;48.788;9.772;2022-09-01T13:21:07;2.95;;;2.50;;
6205;SDS011;3136;48.788;9.772;2022-09-01T13:23:33;3.05;;;2.50;;
6205;SDS011;3136;48.788;9.772;2022-09-01T13:25:59;3.05;;;2.40;;
6205;SDS011;3136;48.788;9.772;2022-09-01T13:28:25;2.47;;;2.28;;
6205;SDS011;3136;48.788;9.772;2022-09-01T13:30:55;2.58;;;2.35;;
6205;SDS011;3136;48.788;9.772;2022-09-01T13:33:23;2.40;;;2.20;;
6205;SDS011;3136;48.788;9.772;2022-09-01T13:35:49;4.53;;;2.50;;
6205;SDS011;3136;48.788;9.772;2022-09-01T13:38:15;3.72;;;2.30;;
6205;SDS011;3136;48.788;9.772;2022-09-01T13:40:42;3.55;;;2.20;;
6205;SDS011;3136;48.788;9.772;2022-09-01T13:43:10;2.15;;;1.95;;
6205;SDS011;3136;48.788;9.772;2022-09-01T13:45:36;2.42;;;2.00;;
6205;SDS011;3136;48.788;9.772;2022-09-01T13:48:04;3.00;;;2.05;;
6205;SDS011;3136;48.788;9.772;2022-09-01T13:50:31;2.22;;;2.05;;
6205;SDS011;3136;48.788;9.772;2022-09-01T13:52:56;2.30;;;2.10;;
6205;SDS011;3136;48.788;9.772;2022-09-01T13:55:23;2.17;;;1.95;;
6205;SDS011;3136;48.788;9.772;2022-09-01T13:57:51;2.08;;;1.92;;
6205;SDS011;3136;48.788;9.772;2022-09-01T14:00:19;2.85;;;2.17;;
6205;SDS011;3136;48.788;9.772;2022-09-01T14:02:48;2.42;;;2.22;;
6205;SDS011;3136;48.788;9.772;2022-09-01T14:05:21;2.72;;;2.15;;
6205;SDS011;3136;48.788;9.772;2022-09-01T14:07:51;2.33;;;2.13;;
6205;SDS011;3136;48.788;9.772;2022-09-01T14:10:19;2.47;;;2.20;;
6205;SDS011;3136;48.788;9.772;2022-09-01T14:12:47;2.53;;;2.30;;
6205;SDS011;3136;48.788;9.772;2022-09-01T14:15:13;2.92;;;2.10;;
6205;SDS011;3136;48.788;9.772;2022-09-01T14:17:40;2.80;;;2.50;;
6205;SDS011;3136;48.788;9.772;2022-09-01T14:20:07;2.70;;;2.50;;
6205;SDS011;3136;48.788;9.772;2022-09-01T14:22:36;3.53;;;2.70;;
6205;SDS011;3136;48.788;9.772;2022-09-01T14:25:04;4.43;;;2.80;;
6205;SDS011;3136;48.788;9.772;2022-09-01T14:27:30;3.80;;;3.00;;
6205;SDS011;3136;48.788;9.772;2022-09-01T14:29:55;5.10;;;2.93;;
6205;SDS011;3136;48.788;9.772;2022-09-01T14:32:21;3.00;;;2.80;;
6205;SDS011;3136;48.788;9.772;2022-09-01T14:34:51;3.27;;;2.90;;
6205;SDS011;3136;48.788;9.772;2022-09-01T14:37:20;4.87;;;3.47;;
6205;SDS011;3136;48.788;9.772;2022-09-01T14:39:50;4.07;;;3.27;;
6205;SDS011;3136;48.788;9.772;2022-09-01T14:42:16;5.27;;;4.20;;
6205;SDS011;3136;48.788;9.772;2022-09-01T14:44:43;4.30;;;3.90;;
6205;SDS011;3136;48.788;9.772;2022-09-01T14:47:10;7.90;;;4.20;;
6205;SDS011;3136;48.788;9.772;2022-09-01T14:49:36;4.00;;;3.60;;
6205;SDS011;3136;48.788;9.772;2022-09-01T14:52:03;3.90;;;3.60;;
6205;SDS011;3136;48.788;9.772;2022-09-01T14:54:31;4.57;;;3.80;;
6205;SDS011;3136;48.788;9.772;2022-09-01T14:57:01;4.27;;;3.87;;
6205;SDS011;3136;48.788;9.772;2022-09-01T14:59:27;4.93;;;3.63;;
6205;SDS011;3136;48.788;9.772;2022-09-01T15:01:53;4.17;;;3.73;;
6205;SDS011;3136;48.788;9.772;2022-09-01T15:04:19;6.50;;;3.60;;
6205;SDS011;3136;48.788;9.772;2022-09-01T15:06:45;4.00;;;3.60;;
6205;SDS011;3136;48.788;9.772;2022-09-01T15:09:10;3.70;;;3.40;;
6205;SDS011;3136;48.788;9.772;2022-09-01T15:11:36;4.17;;;3.50;;
6205;SDS011;3136;48.788;9.772;2022-09-01T15:14:02;4.77;;;3.70;;
6205;SDS011;3136;48.788;9.772;2022-09-01T15:16:28;4.10;;;3.60;;
6205;SDS011;3136;48.788;9.772;2022-09-01T15:18:54;3.77;;;3.37;;
6205;SDS011;3136;48.788;9.772;2022-09-01T15:23:50;4.07;;;3.77;;
6205;SDS011;3136;48.788;9.772;2022-09-01T15:26:18;3.90;;;3.50;;
6205;SDS011;3136;48.788;9.772;2022-09-01T15:28:45;3.53;;;3.23;;
6205;SDS011;3136;48.788;9.772;2022-09-01T15:31:12;5.67;;;3.53;;
6205;SDS011;3136;48.788;9.772;2022-09-01T15:33:39;3.93;;;2.87;;
6205;SDS011;3136;48.788;9.772;2022-09-01T15:36:05;5.80;;;3.30;;
6205;SDS011;3136;48.788;9.772;2022-09-01T15:38:32;5.13;;;3.60;;
6205;SDS011;3136;48.788;9.772;2022-09-01T15:40:58;3.73;;;3.43;;
6205;SDS011;3136;48.788;9.772;2022-09-01T15:43:26;3.30;;;3.10;;
6205;SDS011;3136;48.788;9.772;2022-09-01T15:45:52;3.60;;;3.30;;
6205;SDS011;3136;48.788;9.772;2022-09-01T15:48:19;3.47;;;3.17;;
6205;SDS011;3136;48.788;9.772;2022-09-01T15:50:44;3.87;;;3.27;;
6205;SDS011;3136;48.788;9.772;2022-09-01T15:53:10;3.67;;;3.30;;
6205;SDS011;3136;48.788;9.772;2022-09-01T15:55:40;3.77;;;3.27;;
6205;SDS011;3136;48.788;9.772;2022-09-01T15:58:09;3.17;;;2.90;;
6205;SDS011;3136;48.788;9.772;2022-09-01T16:00:37;3.57;;;3.27;;
6205;SDS011;3136;48.788;9.772;2022-09-01T16:03:04;3.20;;;2.90;;
6205;SDS011;3136;48.788;9.772;2022-09-01T16:05:32;3.57;;;3.10;;
6205;SDS011;3136;48.788;9.772;2022-09-01T16:07:59;3.60;;;3.23;;
6205;SDS011;3136;48.788;9.772;2022-09-01T16:10:25;3.20;;;3.00;;
6205;SDS011;3136;48.788;9.772;2022-09-01T16:12:53;3.60;;;2.90;;
6205;SDS011;3136;48.788;9.772;2022-09-01T16:15:20;3.47;;;2.90;;
6205;SDS011;3136;48.788;9.772;2022-09-01T16:20:23;4.03;;;2.90;;
6205;SDS011;3136;48.788;9.772;2022-09-01T16:22:54;2.83;;;2.63;;
6205;SDS011;3136;48.788;9.772;2022-09-01T16:25:35;5.43;;;2.80;;